Time;durP1;ratioP1;P1;durP2;ratioP2;P2;SDS_P1;SDS_P2;PMS_P1;PMS_P2;Temp;Humidity;BMP_temperature;BMP_pressure;BME280_temperature;BME280_humidity;BME280_pressure;Samples;Min_cycle;Max_cycle;Signal;HPM_P1;HPM_P2
2022/11/03 00:02:07;;;;;;;4.05;1.00;;;;;;;19.96;42.41;101365.22;16134485;19;134051;-44
2022/11/03 00:07:29;;;;;;;4.45;1.10;;;;;;;19.94;42.79;101357.09;16132558;19;129937;-35
2022/11/03 00:12:52;;;;;;;4.72;1.33;;;;;;;19.92;42.85;101358.44;16132900;19;130436;-38
2022/11/03 00:18:14;;;;;;;3.13;0.88;;;;;;;19.90;42.84;101342.03;16129917;19;130023;-35
2022/11/03 00:23:41;;;;;;;3.22;0.90;;;;;;;19.89;42.94;101345.91;16128381;19;129446;-42
2022/11/03 00:29:08;;;;;;;4.70;1.00;;;;;;;19.87;42.66;101334.19;16132302;19;134081;-35
2022/11/03 00:34:30;;;;;;;1.60;0.65;;;;;;;19.86;42.50;101340.00;16128750;19;130329;-35
2022/11/03 00:39:51;;;;;;;4.35;1.00;;;;;;;19.83;42.55;101319.09;16132013;19;129468;-35
2022/11/03 00:45:13;;;;;;;2.55;0.85;;;;;;;19.82;42.92;101318.28;16128187;19;129013;-35
2022/11/03 00:50:35;;;;;;;3.10;0.90;;;;;;;19.81;42.56;101312.97;16128570;19;129802;-38
2022/11/03 00:55:57;;;;;;;4.03;0.90;;;;;;;19.79;43.04;101304.03;16127528;19;129552;-39
2022/11/03 01:01:27;;;;;;;3.10;0.80;;;;;;;19.79;42.53;101290.16;16126652;19;129389;-38
2022/11/03 01:06:51;;;;;;;2.33;0.70;;;;;;;19.77;42.97;101284.00;16128660;19;129590;-35
2022/11/03 01:12:17;;;;;;;1.95;0.70;;;;;;;19.76;42.96;101288.69;16128683;19;129505;-39
2022/11/03 01:17:39;;;;;;;3.10;0.68;;;;;;;19.74;43.01;101273.38;16125615;19;130106;-35
2022/11/03 01:23:01;;;;;;;2.15;0.60;;;;;;;19.74;42.61;101273.38;16126022;19;129591;-35
2022/11/03 01:28:23;;;;;;;2.80;0.70;;;;;;;19.71;42.84;101274.72;16125697;19;130890;-42
2022/11/03 01:33:46;;;;;;;3.08;0.70;;;;;;;19.70;42.62;101259.16;16129764;19;129899;-34
2022/11/03 01:39:12;;;;;;;2.30;0.50;;;;;;;19.69;43.07;101251.91;16127550;19;133434;-35
2022/11/03 01:44:36;;;;;;;2.40;0.63;;;;;;;19.67;42.67;101248.53;16122042;19;129743;-38
2022/11/03 01:50:04;;;;;;;3.55;0.70;;;;;;;19.67;42.61;101241.06;16123094;19;131276;-35
2022/11/03 01:55:31;;;;;;;4.30;0.95;;;;;;;19.65;42.96;101226.59;16126135;19;129896;-37
2022/11/03 02:01:00;;;;;;;1.80;0.55;;;;;;;19.64;43.07;101222.13;16122988;19;129459;-35
2022/11/03 02:06:26;;;;;;;1.80;0.65;;;;;;;19.64;43.11;101213.81;16121885;19;129549;-35
2022/11/03 02:12:06;;;;;;;1.60;0.60;;;;;;;19.61;43.01;101217.06;16126483;19;130972;-35
2022/11/03 02:17:30;;;;;;;2.85;0.60;;;;;;;19.61;42.72;101205.13;16123968;19;130738;-39
2022/11/03 02:23:23;;;;;;;3.17;0.98;;;;;;;19.61;42.93;101208.75;16123660;19;129591;-40
2022/11/03 02:28:45;;;;;;;1.65;0.68;;;;;;;19.58;42.74;101188.97;16121892;19;129657;-36
2022/11/03 02:34:16;;;;;;;3.20;0.82;;;;;;;19.58;42.75;101172.31;16118407;19;130498;-36
2022/11/03 02:39:45;;;;;;;2.60;0.70;;;;;;;19.58;42.72;101170.38;16119950;19;130952;-35
2022/11/03 02:45:10;;;;;;;2.35;1.10;;;;;;;19.56;43.11;101164.25;16122292;19;129276;-35
2022/11/03 02:50:37;;;;;;;4.93;0.68;;;;;;;19.56;42.84;101155.94;16119182;19;129543;-35
2022/11/03 02:56:09;;;;;;;2.67;0.80;;;;;;;19.56;42.90;101138.41;16117365;19;129494;-35
2022/11/03 03:01:46;;;;;;;1.90;0.60;;;;;;;19.55;42.74;101134.81;16119245;19;129628;-37
2022/11/03 03:07:18;;;;;;;2.42;0.73;;;;;;;19.54;42.94;101116.47;16121732;19;130463;-35
2022/11/03 03:12:45;;;;;;;2.13;0.65;;;;;;;19.53;43.00;101109.22;16116520;19;129887;-38
2022/11/03 03:18:25;;;;;;;3.33;0.55;;;;;;;19.53;42.92;101107.28;16121604;19;129669;-35
2022/11/03 03:24:11;;;;;;;2.63;0.70;;;;;;;19.52;42.56;101093.69;16119716;19;129532;-35
2022/11/03 03:29:43;;;;;;;3.70;0.90;;;;;;;19.50;43.00;101088.38;16118461;19;130543;-35
2022/11/03 03:35:08;;;;;;;2.30;0.68;;;;;;;19.50;42.87;101084.75;16120016;19;129649;-35
2022/11/03 03:40:43;;;;;;;3.40;0.82;;;;;;;19.50;42.84;101091.16;16119776;19;129809;-41
2022/11/03 03:46:09;;;;;;;2.45;0.57;;;;;;;19.47;42.97;101079.69;16135218;19;129421;-36
2022/11/03 03:51:31;;;;;;;1.70;0.47;;;;;;;19.45;42.76;101070.75;16136064;19;130052;-40
2022/11/03 03:57:01;;;;;;;2.08;0.60;;;;;;;19.45;43.04;101071.63;16133556;19;130418;-35
2022/11/03 04:02:23;;;;;;;1.27;0.52;;;;;;;19.43;43.03;101064.66;16126523;19;129502;-34
2022/11/03 04:07:47;;;;;;;2.90;0.80;;;;;;;19.42;43.13;101055.47;16132124;19;129494;-36
2022/11/03 04:24:49;;;;;;;1.52;0.68;;;;;;;19.41;42.91;101019.66;16123917;19;129736;-35
2022/11/03 04:30:19;;;;;;;1.67;0.60;;;;;;;19.42;42.82;101015.81;16122014;19;129292;-35
2022/11/03 04:35:44;;;;;;;2.95;0.82;;;;;;;19.40;43.01;101017.97;16121859;19;129411;-35
2022/11/03 04:41:11;;;;;;;;;;;;;;;19.36;43.04;101007.38;16123178;19;130106;-35
2022/11/03 04:46:33;;;;;;;;;;;;;;;19.35;42.54;100988.22;16118555;19;130034;-37
2022/11/03 04:51:55;;;;;;;3.35;0.80;;;;;;;19.36;42.92;100996.28;16123854;19;130689;-38
2022/11/03 04:57:17;;;;;;;2.45;0.68;;;;;;;19.35;42.80;100986.25;16126077;19;129749;-42
2022/11/03 05:02:38;;;;;;;2.60;0.80;;;;;;;19.35;42.91;100977.13;16127952;19;129304;-38
2022/11/03 05:08:00;;;;;;;3.83;1.00;;;;;;;19.34;42.99;100959.63;16127137;19;130289;-42
2022/11/03 05:13:24;;;;;;;3.17;0.60;;;;;;;19.35;42.44;100961.31;16126635;19;129299;-35
2022/11/03 05:18:48;;;;;;;1.90;0.73;;;;;;;19.33;42.81;100952.38;16128601;19;129686;-36
2022/11/03 05:24:13;;;;;;;4.35;0.93;;;;;;;19.33;42.48;100946.84;16126852;19;130363;-41
2022/11/03 05:29:37;;;;;;;2.70;0.90;;;;;;;19.34;42.76;100942.97;16124071;19;129112;-40
2022/11/03 05:35:00;;;;;;;4.38;0.85;;;;;;;19.32;42.43;100931.28;16126188;19;129694;-38
2022/11/03 05:40:24;;;;;;;3.75;0.95;;;;;;;19.33;42.34;100921.88;16125254;19;129438;-35
2022/11/03 05:45:54;;;;;;;3.47;1.20;;;;;;;19.33;42.31;100910.78;16126931;19;129430;-35
2022/11/03 05:51:23;;;;;;;2.97;0.90;;;;;;;19.32;42.27;100895.22;16125210;19;129396;-40
2022/11/03 05:56:44;;;;;;;1.38;0.60;;;;;;;19.30;42.82;100896.56;16127021;19;131267;-36
2022/11/03 06:02:27;;;;;;;4.40;0.88;;;;;;;19.30;42.32;100880.78;16125426;19;129942;-39
2022/11/03 06:07:52;;;;;;;1.35;0.57;;;;;;;19.29;42.71;100878.25;16125993;19;130088;-39
2022/11/03 06:13:18;;;;;;;2.22;0.80;;;;;;;19.30;42.88;100880.78;16123659;19;130276;-35
2022/11/03 06:18:40;;;;;;;6.82;1.00;;;;;;;19.33;42.82;100869.16;16126582;19;129937;-34
2022/11/03 06:24:02;;;;;;;2.53;0.70;;;;;;;19.36;42.83;100863.13;16123195;19;130583;-34
2022/11/03 06:29:23;;;;;;;5.13;0.80;;;;;;;19.35;42.50;100855.06;16124885;19;130161;-34
2022/11/03 06:34:49;;;;;;;6.60;0.85;;;;;;;19.37;42.89;100836.25;16122712;19;130687;-37
2022/11/03 06:40:10;;;;;;;4.25;0.60;;;;;;;19.35;42.57;100833.69;16123999;19;129785;-34
2022/11/03 06:45:32;;;;;;;4.00;1.00;;;;;;;19.35;42.60;100821.78;16122975;19;129616;-37
2022/11/03 06:50:55;;;;;;;2.15;0.73;;;;;;;19.35;43.15;100821.78;16121950;19;129411;-35
2022/11/03 06:56:21;;;;;;;3.28;0.95;;;;;;;19.34;42.96;100820.91;16119826;19;130140;-35
2022/11/03 07:01:47;;;;;;;3.38;0.80;;;;;;;19.33;42.74;100813.69;16126159;19;131538;-34
2022/11/03 07:07:09;;;;;;;4.00;0.70;;;;;;;19.32;42.81;100825.88;16121165;19;130049;-34
2022/11/03 07:12:30;;;;;;;3.92;0.80;;;;;;;19.32;42.87;100831.41;16121791;19;130669;-43
2022/11/03 07:17:53;;;;;;;4.70;0.50;;;;;;;19.30;42.91;100841.94;16126703;19;129665;-38
2022/11/03 07:23:19;;;;;;;3.70;1.02;;;;;;;19.30;43.14;100850.28;16137516;19;129300;-35
2022/11/03 07:28:41;;;;;;;2.65;0.60;;;;;;;19.29;43.15;100843.03;16135978;19;129630;-39
2022/11/03 07:34:09;;;;;;;3.85;0.70;;;;;;;19.27;43.14;100841.59;16137557;19;134527;-36
2022/11/03 07:39:36;;;;;;;5.20;0.82;;;;;;;19.26;43.21;100826.91;16134755;19;129828;-35
2022/11/03 07:44:57;;;;;;;2.20;0.70;;;;;;;19.24;43.21;100806.91;16133790;19;132164;-34
2022/11/03 07:50:19;;;;;;;3.10;1.00;;;;;;;19.23;43.01;100802.44;16132340;19;129385;-34
2022/11/03 07:55:44;;;;;;;4.95;0.80;;;;;;;19.24;43.16;100794.97;16133048;19;131316;-34
2022/11/03 08:01:36;;;;;;;7.87;1.10;;;;;;;19.23;43.07;100783.03;16133831;19;129733;-39
2022/11/03 08:06:58;;;;;;;5.30;0.90;;;;;;;19.22;43.31;100762.78;16123982;19;130776;-35
2022/11/03 08:12:20;;;;;;;3.85;0.90;;;;;;;19.22;43.22;100751.69;16124698;19;131088;-34
2022/11/03 08:17:42;;;;;;;3.40;0.80;;;;;;;19.22;43.30;100748.06;16123735;19;129803;-39
2022/11/03 08:23:04;;;;;;;4.28;0.80;;;;;;;19.21;43.04;100733.38;16123404;19;129607;-35
2022/11/03 08:28:45;;;;;;;6.20;0.70;;;;;;;19.22;43.44;100717.56;16123052;19;130256;-34
2022/11/03 08:34:07;;;;;;;3.22;1.02;;;;;;;19.22;43.27;100700.91;16126085;19;129601;-34
2022/11/03 08:39:30;;;;;;;2.90;0.88;;;;;;;19.22;43.44;100692.59;16121864;19;129148;-34
2022/11/03 08:44:51;;;;;;;4.60;0.80;;;;;;;19.22;43.26;100667.63;16129964;19;129939;-34
2022/11/03 08:50:13;;;;;;;2.08;0.70;;;;;;;19.21;43.00;100654.88;16130809;19;129301;-36
2022/11/03 08:55:35;;;;;;;5.70;1.02;;;;;;;19.22;42.94;100628.81;16128041;19;129212;-37
2022/11/03 09:00:57;;;;;;;3.22;1.00;;;;;;;19.21;43.03;100616.03;16129617;19;129653;-34
2022/11/03 09:06:18;;;;;;;5.40;0.80;;;;;;;19.21;43.06;100613.25;16128730;19;129084;-34
2022/11/03 09:11:40;;;;;;;2.03;1.00;;;;;;;19.21;43.47;100613.25;16131953;19;129897;-37
2022/11/03 09:17:02;;;;;;;4.10;1.02;;;;;;;19.20;43.28;100608.81;16129722;19;129622;-34
2022/11/03 09:22:44;;;;;;;2.67;0.80;;;;;;;19.20;43.49;100597.72;16127571;19;129580;-34
2022/11/03 09:28:05;;;;;;;3.72;0.80;;;;;;;19.19;43.25;100582.19;16127760;19;129643;-35
2022/11/03 09:33:27;;;;;;;2.70;0.90;;;;;;;19.18;43.15;100563.84;16127706;19;133668;-34
2022/11/03 09:38:49;;;;;;;3.50;0.82;;;;;;;19.17;43.14;100559.41;16127828;19;129845;-35
2022/11/03 09:44:11;;;;;;;1.77;0.60;;;;;;;19.16;43.12;100544.69;16128534;19;129831;-34
2022/11/03 09:49:35;;;;;;;2.15;0.55;;;;;;;19.17;43.50;100545.53;16125077;19;129459;-35
2022/11/03 09:54:58;;;;;;;3.05;0.90;;;;;;;19.16;43.24;100516.13;16127017;19;129213;-34
2022/11/03 10:00:22;;;;;;;1.33;0.70;;;;;;;19.17;43.02;100509.50;16126150;19;129695;-34
2022/11/03 10:05:45;;;;;;;4.28;0.80;;;;;;;19.17;43.52;100513.09;16128869;19;129698;-34
2022/11/03 10:11:08;;;;;;;1.70;0.70;;;;;;;19.18;43.30;100505.63;16128228;19;130985;-33
2022/11/03 10:16:29;;;;;;;2.05;0.70;;;;;;;19.17;43.42;100492.84;16123073;19;129402;-33
2022/11/03 10:21:51;;;;;;;2.80;0.68;;;;;;;19.18;43.44;100495.34;16125660;19;129582;-34
2022/11/03 10:27:22;;;;;;;3.97;0.70;;;;;;;19.20;42.99;100495.94;16125187;19;129365;-33
2022/11/03 10:32:43;;;;;;;2.85;0.85;;;;;;;19.19;43.41;100479.56;16126162;19;129131;-33
2022/11/03 10:38:26;;;;;;;1.70;0.50;;;;;;;19.21;43.03;100469.91;16126266;19;129615;-33
2022/11/03 10:44:04;;;;;;;2.25;0.77;;;;;;;19.22;43.40;100459.66;16125747;19;132872;-33
2022/11/03 10:49:29;;;;;;;3.25;0.93;;;;;;;19.19;43.17;100444.34;16123976;19;129854;-34
2022/11/03 10:54:54;;;;;;;3.22;0.73;;;;;;;19.20;43.05;100446.03;16121591;19;129619;-34
2022/11/03 11:00:16;;;;;;;2.58;0.65;;;;;;;19.19;43.06;100441.56;16122199;19;130076;-36
2022/11/03 11:05:45;;;;;;;2.28;0.60;;;;;;;19.21;43.21;100424.69;16122458;19;129790;-34
2022/11/03 11:11:07;;;;;;;3.65;0.60;;;;;;;19.18;42.94;100419.66;16124028;19;130226;-33
2022/11/03 11:16:49;;;;;;;3.53;0.90;;;;;;;19.19;43.10;100391.66;16119805;19;129937;-33
2022/11/03 11:22:12;;;;;;;5.18;0.90;;;;;;;19.18;42.71;100373.34;16119780;19;129653;-33
2022/11/03 11:27:40;;;;;;;3.95;1.02;;;;;;;19.19;42.75;100358.38;16119150;19;129431;-34
2022/11/03 11:33:21;;;;;;;3.25;0.85;;;;;;;19.19;42.69;100349.25;16120642;19;129510;-33
2022/11/03 11:38:48;;;;;;;2.15;0.80;;;;;;;19.19;42.90;100329.84;16118009;19;130232;-33
2022/11/03 11:44:38;;;;;;;5.07;0.98;;;;;;;19.20;43.04;100331.50;16115965;19;129512;-34
2022/11/03 11:50:12;;;;;;;5.90;0.70;;;;;;;19.20;42.71;100323.19;16118360;19;130079;-33
2022/11/03 11:55:37;;;;;;;5.65;0.82;;;;;;;19.20;43.18;100303.78;16115048;19;129149;-36
2022/11/03 12:01:02;;;;;;;3.88;0.70;;;;;;;19.19;43.13;100285.47;16117643;19;128881;-34
2022/11/03 12:06:35;;;;;;;9.47;1.20;;;;;;;19.21;42.95;100274.94;16129577;19;129446;-34
2022/11/03 12:12:00;;;;;;;3.13;0.60;;;;;;;19.19;42.75;100266.88;16134562;19;129435;-33
2022/11/03 12:17:29;;;;;;;5.63;0.77;;;;;;;19.20;43.11;100248.31;16132943;19;129238;-36
2022/11/03 12:22:50;;;;;;;5.43;0.70;;;;;;;19.19;42.68;100219.75;16130343;19;129938;-34
2022/11/03 12:28:29;;;;;;;3.17;0.65;;;;;;;19.22;42.65;100210.06;16132765;19;130020;-42
2022/11/03 12:33:51;;;;;;;3.53;0.70;;;;;;;19.20;42.68;100204.78;16132250;19;129822;-43
2022/11/03 12:39:12;;;;;;;3.78;0.82;;;;;;;19.20;43.11;100187.31;16132589;19;130221;-42
2022/11/03 12:44:34;;;;;;;2.28;0.60;;;;;;;19.19;42.92;100164.28;16128134;19;129424;-42
2022/11/03 12:50:03;;;;;;;4.40;1.17;;;;;;;19.19;43.12;100152.38;16131714;19;131223;-43
2022/11/03 12:55:24;;;;;;;3.25;0.80;;;;;;;19.18;43.13;100161.78;16132341;19;129513;-43
2022/11/03 13:00:49;;;;;;;1.73;0.50;;;;;;;19.16;43.00;100148.19;16131379;19;130835;-42
2022/11/03 13:06:16;;;;;;;1.20;0.50;;;;;;;19.16;42.91;100152.91;16130096;19;129452;-42
2022/11/03 13:17:18;;;;;;;2.17;0.60;;;;;;;19.15;43.01;100140.97;16123211;19;130250;-43
2022/11/03 13:22:40;;;;;;;2.25;0.55;;;;;;;19.15;42.66;100140.13;16131348;19;129556;-42
2022/11/03 13:28:02;;;;;;;2.75;0.77;;;;;;;19.12;42.80;100129.56;16123963;19;129358;-42
2022/11/03 13:33:24;;;;;;;3.15;0.65;;;;;;;19.11;43.12;100114.03;16126970;19;130436;-41
2022/11/03 13:38:46;;;;;;;1.05;0.45;;;;;;;19.11;43.03;100083.56;16125041;19;130380;-42
2022/11/03 13:44:08;;;;;;;2.10;0.77;;;;;;;19.10;42.95;100092.97;16131381;19;131279;-42
2022/11/03 13:49:29;;;;;;;2.95;0.60;;;;;;;19.07;42.77;100089.66;16128155;19;130511;-42
2022/11/03 13:55:11;;;;;;;1.77;0.60;;;;;;;19.07;42.89;100077.72;16127079;19;130279;-43
2022/11/03 14:00:53;;;;;;;2.45;0.70;;;;;;;19.07;42.83;100061.94;16125766;19;129993;-43
2022/11/03 14:06:14;;;;;;;4.00;0.70;;;;;;;19.06;43.14;100053.88;16121902;19;129819;-43
2022/11/03 14:17:16;;;;;;;3.08;0.60;;;;;;;19.04;42.88;100039.44;16121650;19;130601;-43
2022/11/03 14:22:39;;;;;;;1.88;0.63;;;;;;;19.04;43.08;100034.75;16123318;19;129368;-43
2022/11/03 14:28:01;;;;;;;1.92;0.50;;;;;;;19.03;42.92;100010.91;16123701;19;129614;-42
2022/11/03 14:33:22;;;;;;;2.53;0.50;;;;;;;19.04;42.70;100023.66;16123263;19;134309;-41
2022/11/03 14:38:44;;;;;;;1.95;0.57;;;;;;;19.03;43.16;100008.13;16122488;19;129455;-43
2022/11/03 14:44:10;;;;;;;2.58;0.70;;;;;;;19.03;42.75;99996.19;16123659;19;130533;-42
2022/11/03 14:49:33;;;;;;;3.30;0.50;;;;;;;19.04;42.70;99995.09;16121172;19;129386;-42
2022/11/03 14:54:55;;;;;;;1.50;0.60;;;;;;;19.03;42.90;99966.56;16121881;19;129528;-42
2022/11/03 15:00:17;;;;;;;4.05;0.70;;;;;;;19.02;42.70;99959.34;16121270;19;130033;-42
2022/11/03 15:05:44;;;;;;;1.63;0.43;;;;;;;19.01;42.79;99949.34;16120828;19;129030;-42
2022/11/03 15:11:08;;;;;;;4.00;0.60;;;;;;;19.01;42.70;99934.66;16121244;19;129626;-42
2022/11/03 15:16:30;;;;;;;1.73;0.50;;;;;;;18.99;43.20;99926.63;16118558;19;129563;-42
2022/11/03 15:21:52;;;;;;;1.45;0.47;;;;;;;19.00;43.12;99930.22;16119812;19;129092;-42
2022/11/03 15:27:14;;;;;;;2.55;0.75;;;;;;;18.99;42.88;99912.75;16117860;19;129295;-43
2022/11/03 15:32:35;;;;;;;1.35;0.47;;;;;;;18.99;43.16;99900.84;16116393;19;130204;-42
2022/11/03 15:37:57;;;;;;;2.65;0.77;;;;;;;18.98;42.87;99908.31;16120661;19;129572;-42
2022/11/03 15:43:19;;;;;;;3.00;0.60;;;;;;;18.97;42.97;99903.88;16132748;19;129514;-42
2022/11/03 15:48:41;;;;;;;1.90;0.50;;;;;;;18.96;42.98;99899.44;16132900;19;129159;-43
2022/11/03 15:54:03;;;;;;;3.20;0.50;;;;;;;18.95;43.08;99886.72;16136642;19;129087;-42
2022/11/03 15:59:25;;;;;;;1.33;0.60;;;;;;;18.94;43.08;99878.66;16136787;19;130270;-45
2022/11/03 16:04:47;;;;;;;1.48;0.70;;;;;;;18.95;42.86;99880.31;16134719;19;129429;-43
2022/11/03 16:10:09;;;;;;;1.67;0.80;;;;;;;18.95;42.93;99875.63;16132082;19;129514;-42
2022/11/03 16:15:30;;;;;;;3.55;0.70;;;;;;;18.93;43.11;99875.06;16130684;19;129852;-43
2022/11/03 16:20:52;;;;;;;4.10;0.73;;;;;;;18.95;43.04;99880.31;16129523;19;129369;-43
2022/11/03 16:26:14;;;;;;;3.65;0.75;;;;;;;18.95;42.97;99880.31;16127004;19;130051;-42
2022/11/03 16:31:36;;;;;;;5.82;0.95;;;;;;;18.97;42.97;99873.38;16127785;19;129583;-41
2022/11/03 16:36:59;;;;;;;5.20;0.80;;;;;;;19.04;43.54;99871.19;16129489;19;129971;-43
2022/11/03 16:42:21;;;;;;;4.00;1.10;;;;;;;19.07;43.18;99862.34;16129099;19;129455;-42
2022/11/03 16:47:43;;;;;;;3.97;0.55;;;;;;;19.09;43.62;99859.28;16129780;19;130337;-42
2022/11/03 16:53:05;;;;;;;10.27;0.98;;;;;;;19.08;43.28;99836.25;16128589;19;130080;-42
2022/11/03 16:58:27;;;;;;;7.07;0.82;;;;;;;19.08;43.74;99838.22;16132553;19;129921;-42
2022/11/03 17:03:50;;;;;;;6.60;1.00;;;;;;;19.07;43.54;99818.00;16129732;19;130258;-43
2022/11/03 17:09:12;;;;;;;7.57;1.33;;;;;;;19.06;43.72;99816.31;16129722;19;129338;-42
2022/11/03 17:14:35;;;;;;;4.43;0.88;;;;;;;19.05;43.85;99824.91;16126541;19;129749;-42
2022/11/03 17:19:56;;;;;;;2.78;0.88;;;;;;;19.04;43.54;99821.31;16128070;19;129492;-43
2022/11/03 17:25:18;;;;;;;7.35;1.08;;;;;;;19.03;43.83;99824.34;16126486;19;129564;-46
2022/11/03 17:30:40;;;;;;;2.92;0.90;;;;;;;19.02;43.97;99820.75;16128651;19;129932;-43
2022/11/03 17:36:01;;;;;;;2.95;0.80;;;;;;;19.01;43.98;99821.03;16125220;19;129774;-34
2022/11/03 17:41:23;;;;;;;3.95;1.13;;;;;;;19.00;43.80;99824.91;16127313;19;129849;-34
2022/11/03 17:46:45;;;;;;;6.65;0.80;;;;;;;19.00;44.18;99811.03;16128196;19;129536;-34
2022/11/03 17:52:27;;;;;;;6.95;1.05;;;;;;;19.00;44.08;99817.41;16128061;19;129706;-34
2022/11/03 17:57:49;;;;;;;4.00;0.75;;;;;;;18.99;44.02;99818.50;16125898;19;129960;-34
2022/11/03 18:03:14;;;;;;;5.20;0.80;;;;;;;18.99;44.09;99839.88;16126031;19;129531;-34
2022/11/03 18:08:36;;;;;;;6.47;1.20;;;;;;;19.02;44.50;99831.81;16125401;19;129816;-34
2022/11/03 18:13:59;;;;;;;4.75;1.02;;;;;;;19.11;44.40;99845.13;16123672;19;131556;-34
2022/11/03 18:19:21;;;;;;;4.07;0.80;;;;;;;19.21;44.64;99845.16;16124023;19;129585;-34
2022/11/03 18:24:43;;;;;;;8.18;1.27;;;;;;;19.28;44.53;99842.97;16124872;19;130278;-34
2022/11/03 18:30:06;;;;;;;3.70;0.82;;;;;;;19.33;44.79;99825.50;16124616;19;130843;-34
2022/11/03 18:35:32;;;;;;;4.00;1.05;;;;;;;19.36;44.34;99816.63;16119718;19;133984;-33
2022/11/03 18:40:54;;;;;;;5.95;1.08;;;;;;;19.42;44.52;99817.44;16122301;19;129639;-34
2022/11/03 18:46:15;;;;;;;4.10;0.85;;;;;;;19.62;44.35;99822.16;16038786;19;129709;-34
2022/11/03 18:51:38;;;;;;;3.42;0.70;;;;;;;19.87;44.52;99807.38;16116363;19;129315;-37
2022/11/03 18:57:00;;;;;;;7.50;0.98;;;;;;;20.05;43.88;99803.16;16121329;19;129523;-34
2022/11/03 19:02:27;;;;;;;5.50;1.65;;;;;;;20.14;44.33;99798.69;16118002;19;129592;-34
2022/11/03 19:07:49;;;;;;;12.48;1.73;;;;;;;20.17;44.37;99804.78;16120805;19;129035;-38
2022/11/03 19:13:17;;;;;;;10.70;1.45;;;;;;;20.18;44.23;99800.91;16125932;19;130437;-43
2022/11/03 19:18:40;;;;;;;8.35;1.10;;;;;;;20.16;44.09;99814.22;16133934;19;130867;-34
2022/11/03 19:24:03;;;;;;;13.25;1.50;;;;;;;20.13;44.30;99805.34;16134801;19;129384;-34
2022/11/03 19:29:29;;;;;;;11.30;1.75;;;;;;;20.09;44.88;99797.88;16133408;19;129953;-34
2022/11/03 19:35:00;;;;;;;18.23;1.30;;;;;;;20.06;44.96;99799.28;16135021;19;130590;-34
2022/11/03 19:40:22;;;;;;;13.80;1.40;;;;;;;20.01;45.04;99806.81;16135550;19;130909;-34
2022/11/03 19:45:44;;;;;;;12.45;1.50;;;;;;;19.97;44.99;99796.22;16135834;19;131179;-34
2022/11/03 19:51:06;;;;;;;18.98;1.50;;;;;;;19.95;45.28;99789.31;16137220;19;129613;-34
2022/11/03 19:56:28;;;;;;;12.52;1.63;;;;;;;19.91;45.27;99785.41;16137412;19;129490;-34
2022/11/03 20:01:49;;;;;;;14.88;1.25;;;;;;;19.96;45.43;99790.97;16135357;19;129886;-34
2022/11/03 20:07:14;;;;;;;7.15;0.93;;;;;;;20.04;45.56;99814.56;16135651;19;130633;-34
2022/11/03 20:12:36;;;;;;;17.13;1.70;;;;;;;20.14;45.50;99822.84;16134959;19;129543;-34
2022/11/03 20:17:57;;;;;;;9.27;1.35;;;;;;;20.29;45.71;99831.13;16129998;19;129473;-34
2022/11/03 20:23:25;;;;;;;17.50;1.98;;;;;;;20.42;45.44;99842.75;16130189;19;133051;-34
2022/11/03 20:28:47;;;;;;;13.98;1.17;;;;;;;20.53;45.28;99857.41;16132509;19;131018;-34
2022/11/03 20:34:12;;;;;;;7.68;1.17;;;;;;;20.65;45.25;99890.41;16134796;19;129124;-35
2022/11/03 20:39:34;;;;;;;8.52;1.02;;;;;;;20.72;44.78;99915.94;16134018;19;129857;-35
2022/11/03 20:44:56;;;;;;;6.57;1.27;;;;;;;20.80;44.74;99923.72;16132125;19;129646;-35
2022/11/03 20:50:19;;;;;;;7.43;0.90;;;;;;;20.84;44.79;99924.81;16132145;19;128992;-35
2022/11/03 20:55:41;;;;;;;8.38;1.15;;;;;;;20.81;44.94;99952.34;16130928;19;129621;-35
2022/11/03 21:01:09;;;;;;;40.95;4.45;;;;;;;20.77;45.05;99977.13;16129468;19;130201;-35
2022/11/03 21:06:31;;;;;;;9.85;1.00;;;;;;;20.73;44.78;99967.63;16126639;19;129074;-34
2022/11/03 21:11:53;;;;;;;11.70;1.50;;;;;;;20.68;44.95;99959.31;16128540;19;131053;-34
2022/11/03 21:22:55;;;;;;;20.27;2.28;;;;;;;20.59;45.33;99967.41;16128143;19;130107;-37
2022/11/03 21:28:18;;;;;;;17.67;1.58;;;;;;;20.52;45.19;99951.03;16126244;19;130564;-34
2022/11/03 21:33:40;;;;;;;19.80;1.25;;;;;;;20.43;45.17;99980.53;16127260;19;130026;-34
2022/11/03 21:39:03;;;;;;;15.32;1.20;;;;;;;20.35;45.64;100006.94;16128457;19;129371;-33
2022/11/03 21:44:25;;;;;;;7.30;1.55;;;;;;;20.27;45.39;100004.72;16128622;19;130813;-33
2022/11/03 21:49:47;;;;;;;8.40;0.73;;;;;;;20.19;45.32;100008.88;16123584;19;130070;-34
2022/11/03 21:55:09;;;;;;;7.65;1.10;;;;;;;20.13;45.42;100012.78;16124318;19;129649;-34
2022/11/03 22:00:31;;;;;;;12.57;1.30;;;;;;;20.07;45.45;100017.50;16121678;19;129190;-34
2022/11/03 22:05:58;;;;;;;7.35;1.25;;;;;;;20.03;45.63;100018.34;16123867;19;129333;-33
2022/11/03 22:11:20;;;;;;;2.83;0.90;;;;;;;19.98;45.71;100013.59;16127886;19;130284;-34
2022/11/03 22:16:43;;;;;;;8.02;1.00;;;;;;;19.95;45.21;100031.63;16127539;19;129413;-34
2022/11/03 22:27:50;;;;;;;5.07;0.70;;;;;;;19.87;45.42;100054.41;16125072;19;129815;-34
2022/11/03 22:33:12;;;;;;;4.32;0.85;;;;;;;19.85;45.19;100064.94;16123773;19;129489;-33
2022/11/03 22:49:56;;;;;;;1.45;0.65;;;;;;;19.75;45.59;100076.03;16113143;19;130119;-34
2022/11/03 22:55:18;;;;;;;2.75;0.40;;;;;;;19.73;45.40;100081.00;16117992;19;129469;-34
2022/11/03 23:00:39;;;;;;;1.27;0.63;;;;;;;19.68;45.51;100088.25;16118986;19;129668;-34
2022/11/03 23:06:04;;;;;;;3.95;0.30;;;;;;;19.66;45.63;100079.34;16116857;19;130448;-33
2022/11/03 23:11:31;;;;;;;2.13;0.60;;;;;;;19.63;45.18;100088.22;16121612;19;129474;-33
2022/11/03 23:16:52;;;;;;;1.17;0.50;;;;;;;19.62;45.07;100092.09;16122830;19;129934;-34
2022/11/03 23:22:14;;;;;;;2.30;0.88;;;;;;;19.61;45.25;100090.41;16117145;19;129680;-33
2022/11/03 23:27:36;;;;;;;4.28;0.55;;;;;;;19.57;45.06;100089.28;16119823;19;129508;-33
2022/11/03 23:32:59;;;;;;;2.42;0.60;;;;;;;19.54;45.27;100087.09;16120080;19;129212;-33
2022/11/03 23:38:20;;;;;;;2.72;0.50;;;;;;;19.53;45.31;100082.63;16118017;19;129281;-33
2022/11/03 23:43:43;;;;;;;1.30;0.40;;;;;;;19.51;45.24;100087.63;16117173;19;129717;-33
2022/11/03 23:49:05;;;;;;;1.98;0.40;;;;;;;19.50;45.44;100097.06;16116846;19;129074;-34
2022/11/03 23:54:27;;;;;;;1.55;0.35;;;;;;;19.49;45.31;100106.47;16118835;19;130527;-34
2022/11/03 23:59:49;;;;;;;0.90;0.20;;;;;;;19.47;45.30;100106.75;16121978;19;129951;-33
